createdAt,value
2023-03-26T00:01:33.807Z,11.77
2023-03-26T00:04:02.293Z,11.98
2023-03-26T00:06:33.944Z,11.02
2023-03-26T00:11:29.568Z,15.70
2023-03-26T00:13:58.135Z,15.15
2023-03-26T00:16:28.842Z,13.77
2023-03-26T00:18:57.879Z,15.70
2023-03-26T00:21:28.745Z,19.38
2023-03-26T00:24:09.641Z,14.05
2023-03-26T00:26:38.426Z,16.95
2023-03-26T00:29:06.806Z,20.73
2023-03-26T00:31:35.766Z,21.63
2023-03-26T00:34:05.515Z,21.30
2023-03-26T00:36:35.942Z,14.43
2023-03-26T00:39:06.277Z,12.52
2023-03-26T00:41:37.197Z,12.80
2023-03-26T00:44:05.245Z,12.75
2023-03-26T00:46:33.323Z,15.05
2023-03-26T00:49:01.914Z,16.58
2023-03-26T00:51:29.937Z,17.45
2023-03-26T00:53:58.379Z,13.90
2023-03-26T00:56:26.566Z,15.43
2023-03-26T00:58:54.485Z,14.43
2023-03-26T01:01:27.862Z,14.77
2023-03-26T01:04:09.390Z,14.60
2023-03-26T01:06:42.272Z,15.30
2023-03-26T01:09:36.796Z,14.02
2023-03-26T01:12:07.516Z,13.73
2023-03-26T01:14:35.587Z,15.00
2023-03-26T01:17:06.866Z,10.77
2023-03-26T01:19:53.291Z,8.90
2023-03-26T01:22:24.507Z,10.02
2023-03-26T01:24:53.876Z,9.93
2023-03-26T01:27:24.405Z,5.05
2023-03-26T01:29:52.942Z,4.63
2023-03-26T01:32:44.227Z,4.85
2023-03-26T01:35:15.412Z,3.42
2023-03-26T01:38:13.688Z,3.75
2023-03-26T01:41:10.458Z,4.35
2023-03-26T01:44:36.455Z,3.67
2023-03-26T01:47:05.609Z,3.67
2023-03-26T01:49:33.575Z,3.88
2023-03-26T01:52:01.630Z,3.72
2023-03-26T01:54:31.929Z,3.42
2023-03-26T01:57:10.755Z,5.75
2023-03-26T01:59:59.648Z,3.58
2023-03-26T02:02:38.856Z,3.15
2023-03-26T02:05:32.174Z,4.15
2023-03-26T02:08:35.842Z,5.10
2023-03-26T02:11:11.444Z,3.80
2023-03-26T02:13:41.644Z,3.90
2023-03-26T02:16:14.326Z,4.18
2023-03-26T02:18:43.472Z,4.20
2023-03-26T02:21:20.443Z,3.75
2023-03-26T02:23:50.887Z,3.55
2023-03-26T02:26:20.518Z,4.70
2023-03-26T02:29:10.102Z,4.38
2023-03-26T02:31:40.807Z,4.28
2023-03-26T02:34:08.433Z,4.07
2023-03-26T02:36:38.750Z,5.32
2023-03-26T02:39:10.890Z,5.25
2023-03-26T02:41:39.434Z,6.43
2023-03-26T02:44:12.434Z,6.55
2023-03-26T02:46:58.789Z,7.28
2023-03-26T02:49:41.482Z,7.75
2023-03-26T02:52:10.463Z,9.45
2023-03-26T02:54:38.387Z,10.45
2023-03-26T02:57:20.831Z,10.93
2023-03-26T02:59:50.446Z,12.50
2023-03-26T03:02:38.461Z,18.88
2023-03-26T03:05:38.025Z,15.70
2023-03-26T03:08:35.092Z,16.83
2023-03-26T03:11:11.452Z,16.20
2023-03-26T03:13:47.345Z,16.48
2023-03-26T03:16:24.307Z,16.35
2023-03-26T03:18:58.158Z,16.20
2023-03-26T03:21:37.472Z,15.40
2023-03-26T03:24:06.325Z,17.52
2023-03-26T03:26:47.759Z,16.50
2023-03-26T03:29:34.253Z,14.93
2023-03-26T03:32:25.771Z,16.33
2023-03-26T03:34:57.660Z,16.45
2023-03-26T03:37:27.046Z,16.55
2023-03-26T03:39:56.604Z,16.03
2023-03-26T03:42:29.948Z,15.57
2023-03-26T03:45:02.122Z,15.55
2023-03-26T03:47:58.114Z,14.70
2023-03-26T03:50:35.694Z,14.55
2023-03-26T03:53:37.362Z,14.35
2023-03-26T03:56:10.374Z,13.77
2023-03-26T03:58:58.364Z,13.35
2023-03-26T04:01:32.978Z,13.82
2023-03-26T04:04:06.219Z,12.32
2023-03-26T04:06:54.768Z,11.80
2023-03-26T04:09:24.133Z,12.13
2023-03-26T04:11:53.285Z,12.45
2023-03-26T04:14:37.315Z,10.65
2023-03-26T04:17:10.384Z,9.82
2023-03-26T04:19:39.523Z,10.07
2023-03-26T04:22:12.001Z,11.70
2023-03-26T04:24:55.248Z,8.80
2023-03-26T04:27:27.338Z,8.80
2023-03-26T04:30:03.885Z,9.27
2023-03-26T04:32:35.273Z,8.85
2023-03-26T04:37:39.718Z,8.25
2023-03-26T04:40:22.057Z,7.80
2023-03-26T04:43:13.774Z,8.05
2023-03-26T04:46:02.917Z,7.63
2023-03-26T04:48:33.069Z,8.50
2023-03-26T04:51:01.387Z,8.13
2023-03-26T04:53:29.036Z,9.32
2023-03-26T04:56:46.659Z,7.22
2023-03-26T04:59:30.077Z,7.05
2023-03-26T05:02:00.312Z,7.35
2023-03-26T05:04:31.957Z,6.78
2023-03-26T05:07:00.828Z,6.38
2023-03-26T05:09:37.344Z,6.10
2023-03-26T05:12:22.908Z,5.80
2023-03-26T05:15:07.175Z,6.13
2023-03-26T05:18:08.931Z,5.05
2023-03-26T05:20:50.251Z,5.45
2023-03-26T05:23:18.108Z,5.78
2023-03-26T05:25:54.569Z,5.57
2023-03-26T05:28:26.698Z,5.85
2023-03-26T05:30:58.124Z,7.53
2023-03-26T05:33:29.024Z,7.80
2023-03-26T05:36:09.840Z,8.25
2023-03-26T05:38:37.583Z,8.35
2023-03-26T05:41:09.870Z,8.98
2023-03-26T05:43:41.975Z,10.00
2023-03-26T05:46:12.723Z,10.33
2023-03-26T05:48:40.426Z,12.38
2023-03-26T05:51:09.106Z,10.95
2023-03-26T05:53:41.782Z,13.05
2023-03-26T05:56:21.381Z,9.60
2023-03-26T05:59:03.820Z,9.30
2023-03-26T06:02:10.759Z,9.02
2023-03-26T06:04:56.929Z,8.25
2023-03-26T06:07:53.523Z,8.05
2023-03-26T06:10:21.995Z,9.02
2023-03-26T06:12:49.774Z,8.95
2023-03-26T06:15:18.251Z,8.55
2023-03-26T06:18:04.040Z,8.20
2023-03-26T06:20:51.150Z,8.27
2023-03-26T06:23:41.713Z,9.02
2023-03-26T06:26:16.788Z,7.00
2023-03-26T06:29:02.068Z,7.05
2023-03-26T06:31:38.204Z,6.90
2023-03-26T06:34:16.456Z,6.63
2023-03-26T06:36:44.194Z,7.10
2023-03-26T06:39:12.461Z,6.60
2023-03-26T06:41:48.769Z,5.75
2023-03-26T06:44:36.624Z,5.97
2023-03-26T06:47:22.921Z,5.65
2023-03-26T06:49:50.626Z,6.40
2023-03-26T06:52:32.416Z,6.15
2023-03-26T06:55:25.980Z,5.97
2023-03-26T06:58:25.241Z,5.45
2023-03-26T07:01:11.758Z,5.47
2023-03-26T07:03:59.843Z,4.95
2023-03-26T07:06:46.689Z,4.47
2023-03-26T07:09:32.988Z,4.38
2023-03-26T07:12:23.537Z,4.55
2023-03-26T07:15:07.233Z,4.05
2023-03-26T07:17:58.792Z,4.20
2023-03-26T07:20:31.998Z,4.22
2023-03-26T07:23:00.294Z,5.15
2023-03-26T07:25:44.356Z,4.32
2023-03-26T07:29:05.262Z,4.53
2023-03-26T07:32:09.563Z,3.47
2023-03-26T07:34:59.430Z,4.25
2023-03-26T07:38:13.928Z,3.47
2023-03-26T07:41:28.054Z,3.92
2023-03-26T07:44:43.415Z,3.17
2023-03-26T07:47:33.276Z,3.67
2023-03-26T07:50:26.538Z,4.20
2023-03-26T07:53:09.856Z,3.40
2023-03-26T07:56:14.140Z,3.42
2023-03-26T07:59:16.445Z,2.97
2023-03-26T08:02:37.017Z,4.00
2023-03-26T08:05:37.485Z,3.22
2023-03-26T08:08:51.801Z,2.60
2023-03-26T08:12:26.065Z,2.58
2023-03-26T08:15:29.483Z,2.17
2023-03-26T08:18:26.149Z,2.97
2023-03-26T08:21:10.285Z,3.08
2023-03-26T08:24:09.592Z,2.95
2023-03-26T08:27:09.478Z,3.55
2023-03-26T08:30:03.910Z,3.17
2023-03-26T08:32:32.040Z,5.13
2023-03-26T08:35:00.269Z,3.22
2023-03-26T08:37:29.264Z,3.72
2023-03-26T08:39:57.206Z,3.65
2023-03-26T08:42:25.589Z,3.00
2023-03-26T08:45:24.242Z,3.30
2023-03-26T08:48:37.133Z,3.63
2023-03-26T08:51:29.228Z,4.32
2023-03-26T08:54:32.683Z,3.58
2023-03-26T08:57:18.198Z,3.20
2023-03-26T09:00:13.218Z,3.38
2023-03-26T09:03:08.212Z,6.40
2023-03-26T09:06:03.223Z,3.20
2023-03-26T09:36:24.088Z,3.03
2023-03-26T09:39:27.616Z,3.40
2023-03-26T09:42:07.965Z,2.38
2023-03-26T09:45:10.768Z,2.97
2023-03-26T09:47:48.902Z,2.80
2023-03-26T09:50:23.988Z,3.10
2023-03-26T09:53:20.389Z,3.20
2023-03-26T09:55:51.497Z,3.22
2023-03-26T10:01:16.768Z,2.92
2023-03-26T10:03:58.256Z,3.13
2023-03-26T10:06:44.627Z,4.20
2023-03-26T10:09:37.519Z,3.55
2023-03-26T10:12:22.553Z,3.53
2023-03-26T10:15:25.186Z,3.03
2023-03-26T10:18:02.728Z,3.05
2023-03-26T10:21:50.990Z,2.83
2023-03-26T10:24:27.753Z,3.10
2023-03-26T10:27:19.700Z,3.42
2023-03-26T10:33:06.071Z,2.30
2023-03-26T10:35:59.725Z,3.38
2023-03-26T10:39:06.859Z,3.05
2023-03-26T10:41:53.843Z,2.95
2023-03-26T10:44:43.438Z,2.70
2023-03-26T10:47:22.922Z,3.45
2023-03-26T10:50:28.061Z,2.30
2023-03-26T10:52:58.878Z,3.15
2023-03-26T10:55:35.298Z,2.75
2023-03-26T10:58:24.364Z,3.22
2023-03-26T11:01:06.129Z,3.55
2023-03-26T11:03:52.208Z,3.25
2023-03-26T11:06:51.172Z,2.25
2023-03-26T11:09:31.342Z,2.90
2023-03-26T11:12:26.897Z,3.00
2023-03-26T11:15:05.378Z,2.42
2023-03-26T11:17:59.050Z,2.95
2023-03-26T11:20:39.195Z,2.47
2023-03-26T11:23:15.503Z,2.85
2023-03-26T11:25:47.944Z,3.47
2023-03-26T11:28:40.400Z,2.55
2023-03-26T11:31:45.459Z,2.75
2023-03-26T11:34:20.386Z,3.58
2023-03-26T11:36:54.073Z,3.08
2023-03-26T11:39:26.493Z,2.63
2023-03-26T11:42:12.668Z,2.70
2023-03-26T11:45:21.009Z,2.47
2023-03-26T11:47:56.678Z,2.90
2023-03-26T11:50:28.610Z,2.38
2023-03-26T11:53:03.328Z,3.28
2023-03-26T11:55:32.038Z,2.47
2023-03-26T11:58:03.500Z,3.05
2023-03-26T12:00:31.441Z,2.72
2023-03-26T12:03:00.437Z,2.72
2023-03-26T12:05:46.434Z,2.50
2023-03-26T12:08:27.126Z,2.60
2023-03-26T12:11:08.967Z,2.55
2023-03-26T12:13:53.146Z,2.40
2023-03-26T12:16:22.543Z,2.42
2023-03-26T12:19:02.786Z,2.80
2023-03-26T12:21:49.839Z,2.53
2023-03-26T12:24:34.837Z,3.20
2023-03-26T12:27:20.604Z,3.33
2023-03-26T12:29:55.128Z,2.50
2023-03-26T12:32:32.392Z,2.25
2023-03-26T12:35:14.169Z,2.47
2023-03-26T12:37:43.434Z,2.22
2023-03-26T12:40:30.181Z,2.65
2023-03-26T12:44:55.537Z,2.58
2023-03-26T12:47:55.672Z,2.60
2023-03-26T12:49:18.777Z,2.72
2023-03-26T12:51:47.041Z,2.67
2023-03-26T12:54:33.262Z,2.40
2023-03-26T12:57:11.900Z,2.92
2023-03-26T13:00:14.886Z,2.45
2023-03-26T13:05:24.953Z,2.95
2023-03-26T13:08:01.518Z,2.22
2023-03-26T13:10:50.377Z,3.20
2023-03-26T13:13:56.427Z,4.28
2023-03-26T13:16:49.737Z,3.33
2023-03-26T13:19:38.227Z,3.78
2023-03-26T13:22:38.477Z,3.53
2023-03-26T13:25:38.798Z,3.97
2023-03-26T13:28:34.129Z,2.90
2023-03-26T13:31:26.029Z,2.30
2023-03-26T13:34:05.990Z,3.67
2023-03-26T13:36:59.608Z,2.60
2023-03-26T13:39:33.359Z,2.50
2023-03-26T13:42:37.627Z,3.33
2023-03-26T13:45:35.689Z,3.22
2023-03-26T13:48:05.758Z,2.17
2023-03-26T13:50:38.607Z,2.92
2023-03-26T13:53:12.742Z,2.90
2023-03-26T13:55:42.775Z,2.35
2023-03-26T13:58:42.682Z,2.55
2023-03-26T14:01:19.531Z,2.35
2023-03-26T14:04:06.755Z,2.17
2023-03-26T14:06:57.580Z,2.97
2023-03-26T14:09:34.527Z,3.20
2023-03-26T14:12:49.452Z,3.67
2023-03-26T14:15:31.403Z,3.65
2023-03-26T14:18:03.842Z,3.65
2023-03-26T14:20:49.342Z,3.88
2023-03-26T14:23:16.961Z,3.90
2023-03-26T14:25:50.718Z,3.35
2023-03-26T14:28:49.521Z,3.55
2023-03-26T14:31:30.072Z,3.45
2023-03-26T14:34:16.167Z,3.65
2023-03-26T14:37:08.240Z,4.38
2023-03-26T14:40:15.128Z,3.17
2023-03-26T14:42:55.940Z,3.10
2023-03-26T14:45:52.056Z,4.75
2023-03-26T14:48:58.149Z,4.72
2023-03-26T14:51:47.024Z,5.20
2023-03-26T14:54:27.146Z,5.07
2023-03-26T14:57:25.096Z,3.90
2023-03-26T15:00:16.805Z,4.63
2023-03-26T15:03:07.600Z,4.65
2023-03-26T15:05:44.122Z,4.65
2023-03-26T15:08:14.523Z,4.78
2023-03-26T15:11:03.213Z,3.53
2023-03-26T15:13:55.392Z,4.22
2023-03-26T15:16:47.810Z,3.50
2023-03-26T15:19:46.978Z,2.70
2023-03-26T15:22:32.859Z,2.70
2023-03-26T15:25:17.768Z,2.35
2023-03-26T15:28:06.424Z,3.25
2023-03-26T15:31:10.042Z,3.47
2023-03-26T15:34:07.749Z,2.70
2023-03-26T15:37:00.389Z,2.70
2023-03-26T15:40:08.814Z,3.08
2023-03-26T15:42:51.601Z,2.70
2023-03-26T15:45:32.402Z,5.43
2023-03-26T15:48:12.104Z,2.67
2023-03-26T15:51:06.426Z,5.80
2023-03-26T15:53:43.456Z,10.25
2023-03-26T15:56:52.951Z,11.00
2023-03-26T15:59:40.093Z,12.65
2023-03-26T16:02:23.658Z,2.80
2023-03-26T16:05:26.644Z,4.68
2023-03-26T16:08:02.877Z,4.03
2023-03-26T16:10:52.666Z,2.55
2023-03-26T16:13:20.489Z,4.57
2023-03-26T16:16:14.476Z,5.35
2023-03-26T16:18:44.017Z,2.72
2023-03-26T16:21:36.592Z,2.60
2023-03-26T16:24:08.186Z,3.53
2023-03-26T16:29:25.745Z,2.47
2023-03-26T16:32:31.139Z,3.13
2023-03-26T16:35:08.714Z,3.90
2023-03-26T16:37:39.783Z,3.25
2023-03-26T16:40:16.722Z,2.42
2023-03-26T16:43:19.662Z,2.58
2023-03-26T16:46:42.192Z,3.00
2023-03-26T16:49:27.533Z,2.70
2023-03-26T16:52:20.486Z,3.80
2023-03-26T16:55:03.910Z,3.33
2023-03-26T16:57:56.150Z,2.85
2023-03-26T17:00:35.782Z,3.10
2023-03-26T17:04:04.542Z,2.30
2023-03-26T17:06:56.622Z,2.40
2023-03-26T17:09:46.655Z,2.40
2023-03-26T17:12:19.263Z,2.58
2023-03-26T17:15:06.454Z,2.22
2023-03-26T17:18:11.540Z,2.10
2023-03-26T17:21:04.006Z,1.90
2023-03-26T17:23:54.787Z,1.65
2023-03-26T17:26:39.081Z,2.28
2023-03-26T17:29:09.963Z,2.60
2023-03-26T17:31:56.883Z,2.92
2023-03-26T17:34:45.485Z,2.88
2023-03-26T17:37:22.028Z,2.60
2023-03-26T17:39:55.948Z,2.60
2023-03-26T17:42:33.514Z,2.65
2023-03-26T17:50:56.728Z,1.88
2023-03-26T17:53:31.249Z,2.50
2023-03-26T17:56:03.886Z,2.63
2023-03-26T17:58:37.559Z,2.63
2023-03-26T18:01:28.904Z,2.53
2023-03-26T18:04:00.470Z,2.72
2023-03-26T18:06:52.769Z,3.55
2023-03-26T18:09:58.327Z,2.90
2023-03-26T18:13:03.489Z,5.22
2023-03-26T18:15:57.244Z,4.30
2023-03-26T18:19:18.839Z,3.13
2023-03-26T18:22:14.752Z,6.67
2023-03-26T18:24:44.022Z,4.65
2023-03-26T18:27:14.812Z,3.70
2023-03-26T18:30:02.778Z,2.85
2023-03-26T18:32:33.790Z,2.60
2023-03-26T18:35:17.088Z,3.25
2023-03-26T18:37:46.094Z,3.25
2023-03-26T18:40:20.248Z,3.83
2023-03-26T18:42:51.769Z,3.00
2023-03-26T18:45:27.854Z,2.38
2023-03-26T18:48:06.029Z,2.83
2023-03-26T18:50:36.975Z,2.83
2023-03-26T18:53:07.428Z,3.42
2023-03-26T18:55:39.582Z,3.30
2023-03-26T18:58:23.617Z,3.13
2023-03-26T19:01:25.417Z,4.43
2023-03-26T19:03:54.622Z,3.53
2023-03-26T19:06:23.458Z,3.35
2023-03-26T19:08:52.406Z,4.10
2023-03-26T19:11:20.709Z,4.68
2023-03-26T19:14:04.087Z,4.00
2023-03-26T19:16:35.802Z,3.78
2023-03-26T19:19:07.302Z,3.42
2023-03-26T19:21:36.611Z,4.55
2023-03-26T19:24:05.621Z,4.47
2023-03-26T19:26:34.257Z,5.15
2023-03-26T19:29:02.949Z,5.78
2023-03-26T19:31:39.186Z,5.25
2023-03-26T19:34:17.502Z,4.85
2023-03-26T19:37:02.010Z,5.70
2023-03-26T19:39:44.823Z,4.32
2023-03-26T19:42:16.200Z,5.63
2023-03-26T19:47:19.669Z,7.35
2023-03-26T19:49:48.763Z,7.85
2023-03-26T19:52:21.670Z,5.95
2023-03-26T19:55:00.244Z,5.10
2023-03-26T19:57:32.491Z,6.15
2023-03-26T20:00:01.184Z,20.08
2023-03-26T20:02:29.095Z,17.33
2023-03-26T20:04:57.446Z,8.82
2023-03-26T20:07:35.799Z,18.55
2023-03-26T20:10:05.736Z,25.15
2023-03-26T20:12:33.657Z,16.10
2023-03-26T20:15:02.132Z,9.00
2023-03-26T20:17:30.932Z,10.95
2023-03-26T20:19:59.689Z,4.78
2023-03-26T20:22:27.420Z,6.90
2023-03-26T20:24:55.126Z,4.70
2023-03-26T20:27:22.897Z,5.60
2023-03-26T20:29:50.496Z,4.32
2023-03-26T20:32:26.373Z,4.65
2023-03-26T20:34:54.924Z,4.13
2023-03-26T20:37:22.769Z,3.40
2023-03-26T20:39:50.683Z,4.45
2023-03-26T20:42:18.413Z,5.82
2023-03-26T20:44:46.985Z,5.82
2023-03-26T20:47:14.613Z,12.00
2023-03-26T20:49:43.211Z,7.70
2023-03-26T20:52:13.608Z,9.40
2023-03-26T20:54:41.888Z,13.93
2023-03-26T20:57:13.330Z,9.40
2023-03-26T20:59:42.047Z,5.78
2023-03-26T21:02:11.988Z,7.00
2023-03-26T21:04:39.903Z,9.32
2023-03-26T21:07:17.572Z,9.82
2023-03-26T21:09:49.330Z,9.68
2023-03-26T21:12:32.246Z,4.43
2023-03-26T21:15:00.490Z,5.05
2023-03-26T21:17:29.550Z,6.07
2023-03-26T21:20:02.500Z,6.63
2023-03-26T21:23:00.174Z,8.18
2023-03-26T21:26:01.497Z,5.72
2023-03-26T21:28:46.716Z,6.55
2023-03-26T21:31:20.437Z,7.03
2023-03-26T21:33:49.520Z,4.35
2023-03-26T21:36:19.824Z,4.82
2023-03-26T21:38:48.025Z,5.40
2023-03-26T21:41:43.912Z,4.75
2023-03-26T21:44:11.813Z,5.03
2023-03-26T21:46:45.011Z,4.47
2023-03-26T21:49:14.815Z,4.85
2023-03-26T21:51:43.093Z,3.08
2023-03-26T21:54:28.666Z,3.30
2023-03-26T21:57:14.274Z,3.42
2023-03-26T21:59:44.838Z,3.78
2023-03-26T22:02:35.859Z,4.03
2023-03-26T22:05:17.111Z,3.42
2023-03-26T22:08:01.653Z,3.17
2023-03-26T22:10:30.886Z,3.00
2023-03-26T22:12:58.884Z,3.25
2023-03-26T22:15:30.454Z,3.03
2023-03-26T22:20:29.919Z,3.58
2023-03-26T22:22:58.687Z,4.03
2023-03-26T22:25:26.477Z,5.07
2023-03-26T22:27:54.020Z,4.72
2023-03-26T22:30:21.879Z,4.88
2023-03-26T22:32:50.276Z,4.85
2023-03-26T22:35:18.149Z,5.97
2023-03-26T22:37:46.230Z,4.18
2023-03-26T22:40:13.844Z,3.15
2023-03-26T22:42:41.996Z,5.68
2023-03-26T22:45:10.802Z,4.43
2023-03-26T22:47:38.490Z,2.85
2023-03-26T22:50:07.648Z,3.30
2023-03-26T22:52:36.544Z,3.05
2023-03-26T22:55:05.365Z,3.10
2023-03-26T22:57:33.481Z,4.32
2023-03-26T23:00:12.579Z,4.95
2023-03-26T23:02:40.741Z,2.90
2023-03-26T23:05:08.775Z,2.78
2023-03-26T23:07:37.483Z,2.72
2023-03-26T23:10:06.234Z,4.20
2023-03-26T23:12:33.909Z,2.80
2023-03-26T23:15:05.007Z,2.03
2023-03-26T23:17:35.324Z,2.05
2023-03-26T23:20:06.192Z,2.38
2023-03-26T23:22:35.353Z,1.70
2023-03-26T23:25:03.321Z,4.20
2023-03-26T23:27:30.904Z,2.38
2023-03-26T23:29:58.598Z,2.70
2023-03-26T23:32:26.232Z,3.03
2023-03-26T23:34:56.780Z,2.00
2023-03-26T23:37:24.424Z,2.45
2023-03-26T23:39:52.665Z,1.90
2023-03-26T23:42:28.608Z,2.10
2023-03-26T23:44:57.733Z,3.33
2023-03-26T23:47:25.357Z,4.75
2023-03-26T23:49:52.964Z,3.35
2023-03-26T23:52:20.519Z,3.33
2023-03-26T23:54:48.106Z,3.97
2023-03-26T23:57:16.070Z,5.70
2023-03-26T23:59:43.869Z,6.13
